sensor_id;sensor_type;location;lat;lon;timestamp;pressure;altitude;pressure_sealevel;temperature;humidity
65718;BME280;52445;52.466;-1.016;2022-07-26T00:00:09;100260.03;;;16.21;65.96
65718;BME280;52445;52.466;-1.016;2022-07-26T00:02:38;100265.38;;;16.16;66.10
65718;BME280;52445;52.466;-1.016;2022-07-26T00:05:15;100265.47;;;16.12;66.15
65718;BME280;52445;52.466;-1.016;2022-07-26T00:07:41;100257.66;;;16.10;66.31
65718;BME280;52445;52.466;-1.016;2022-07-26T00:10:08;100264.59;;;16.11;66.62
65718;BME280;52445;52.466;-1.016;2022-07-26T00:12:35;100275.97;;;16.10;65.89
65718;BME280;52445;52.466;-1.016;2022-07-26T00:15:05;100278.56;;;16.10;66.31
65718;BME280;52445;52.466;-1.016;2022-07-26T00:17:33;100284.72;;;16.08;66.94
65718;BME280;52445;52.466;-1.016;2022-07-26T00:20:00;100276.91;;;16.06;67.31
65718;BME280;52445;52.466;-1.016;2022-07-26T00:22:26;100276.91;;;16.06;67.68
65718;BME280;52445;52.466;-1.016;2022-07-26T00:25:03;100283.84;;;16.07;67.06
65718;BME280;52445;52.466;-1.016;2022-07-26T00:27:31;100280.44;;;16.05;66.64
65718;BME280;52445;52.466;-1.016;2022-07-26T00:29:57;100278.69;;;16.04;67.33
65718;BME280;52445;52.466;-1.016;2022-07-26T00:32:24;100281.31;;;16.04;67.08
65718;BME280;52445;52.466;-1.016;2022-07-26T00:34:51;100284.81;;;16.03;67.58
65718;BME280;52445;52.466;-1.016;2022-07-26T00:37:18;100295.28;;;16.03;67.15
65718;BME280;52445;52.466;-1.016;2022-07-26T00:39:47;100299.69;;;16.01;67.71
65718;BME280;52445;52.466;-1.016;2022-07-26T00:42:14;100297.06;;;16.01;67.76
65718;BME280;52445;52.466;-1.016;2022-07-26T00:44:43;100299.69;;;16.01;68.18
65718;BME280;52445;52.466;-1.016;2022-07-26T00:47:10;100296.16;;;16.02;67.71
65718;BME280;52445;52.466;-1.016;2022-07-26T00:49:37;100290.00;;;16.04;67.81
65718;BME280;52445;52.466;-1.016;2022-07-26T00:52:05;100295.19;;;16.08;67.56
65718;BME280;52445;52.466;-1.016;2022-07-26T00:54:32;100297.75;;;16.09;67.78
65718;BME280;52445;52.466;-1.016;2022-07-26T00:56:59;100300.34;;;16.11;68.13
65718;BME280;52445;52.466;-1.016;2022-07-26T00:59:26;100306.41;;;16.11;67.90
65718;BME280;52445;52.466;-1.016;2022-07-26T01:01:53;100303.78;;;16.11;67.88
65718;BME280;52445;52.466;-1.016;2022-07-26T01:04:20;100301.19;;;16.11;68.37
65718;BME280;52445;52.466;-1.016;2022-07-26T01:06:47;100308.06;;;16.15;67.64
65718;BME280;52445;52.466;-1.016;2022-07-26T01:09:15;100301.97;;;16.16;68.17
65718;BME280;52445;52.466;-1.016;2022-07-26T01:11:42;100303.69;;;16.17;67.62
65718;BME280;52445;52.466;-1.016;2022-07-26T01:14:08;100307.09;;;16.19;67.59
65718;BME280;52445;52.466;-1.016;2022-07-26T01:16:36;100308.81;;;16.22;67.83
65718;BME280;52445;52.466;-1.016;2022-07-26T01:19:03;100308.72;;;16.25;67.86
65718;BME280;52445;52.466;-1.016;2022-07-26T01:21:31;100307.78;;;16.29;67.62
65718;BME280;52445;52.466;-1.016;2022-07-26T01:23:58;100304.25;;;16.30;67.94
65718;BME280;52445;52.466;-1.016;2022-07-26T01:26:24;100308.59;;;16.31;67.83
65718;BME280;52445;52.466;-1.016;2022-07-26T01:28:51;100312.94;;;16.31;67.20
65718;BME280;52445;52.466;-1.016;2022-07-26T01:31:18;100319.03;;;16.31;68.21
65718;BME280;52445;52.466;-1.016;2022-07-26T01:33:44;100306.84;;;16.32;68.05
65718;BME280;52445;52.466;-1.016;2022-07-26T01:36:11;100305.09;;;16.31;67.90
65718;BME280;52445;52.466;-1.016;2022-07-26T01:38:39;100307.72;;;16.31;68.21
65718;BME280;52445;52.466;-1.016;2022-07-26T01:41:06;100306.06;;;16.27;67.98
65718;BME280;52445;52.466;-1.016;2022-07-26T01:43:33;100300.88;;;16.25;67.99
65718;BME280;52445;52.466;-1.016;2022-07-26T01:46:00;100302.66;;;16.25;68.65
65718;BME280;52445;52.466;-1.016;2022-07-26T01:48:27;100307.00;;;16.24;67.92
65718;BME280;52445;52.466;-1.016;2022-07-26T01:50:55;100300.03;;;16.25;67.89
65718;BME280;52445;52.466;-1.016;2022-07-26T01:53:22;100305.25;;;16.25;67.74
65718;BME280;52445;52.466;-1.016;2022-07-26T01:55:49;100312.25;;;16.23;68.31
65718;BME280;52445;52.466;-1.016;2022-07-26T01:58:15;100310.56;;;16.22;68.36
65718;BME280;52445;52.466;-1.016;2022-07-26T02:00:43;100318.38;;;16.22;68.18
65718;BME280;52445;52.466;-1.016;2022-07-26T02:03:10;100320.13;;;16.21;67.97
65718;BME280;52445;52.466;-1.016;2022-07-26T02:05:36;100321.00;;;16.22;68.40
65718;BME280;52445;52.466;-1.016;2022-07-26T02:08:03;100313.16;;;16.22;67.80
65718;BME280;52445;52.466;-1.016;2022-07-26T02:10:30;100307.94;;;16.22;68.02
65718;BME280;52445;52.466;-1.016;2022-07-26T02:13:17;100307.94;;;16.22;68.15
65718;BME280;52445;52.466;-1.016;2022-07-26T02:15:44;100316.69;;;16.21;68.05
65718;BME280;52445;52.466;-1.016;2022-07-26T02:18:11;100307.97;;;16.20;68.26
65718;BME280;52445;52.466;-1.016;2022-07-26T02:20:37;100317.63;;;16.18;68.45
65718;BME280;52445;52.466;-1.016;2022-07-26T02:23:04;100319.41;;;16.14;68.55
65718;BME280;52445;52.466;-1.016;2022-07-26T02:25:31;100320.34;;;16.12;67.91
65718;BME280;52445;52.466;-1.016;2022-07-26T02:27:58;100320.38;;;16.10;68.28
65718;BME280;52445;52.466;-1.016;2022-07-26T02:30:27;100323.00;;;16.09;68.37
65718;BME280;52445;52.466;-1.016;2022-07-26T02:32:54;100333.50;;;16.07;68.13
65718;BME280;52445;52.466;-1.016;2022-07-26T02:35:20;100336.16;;;16.04;68.46
65718;BME280;52445;52.466;-1.016;2022-07-26T02:37:47;100334.47;;;16.03;68.44
65718;BME280;52445;52.466;-1.016;2022-07-26T02:40:14;100332.81;;;15.99;68.28
65718;BME280;52445;52.466;-1.016;2022-07-26T02:42:44;100335.47;;;15.96;68.19
65718;BME280;52445;52.466;-1.016;2022-07-26T02:45:11;100333.72;;;15.94;68.53
65718;BME280;52445;52.466;-1.016;2022-07-26T02:47:47;100337.25;;;15.92;68.35
65718;BME280;52445;52.466;-1.016;2022-07-26T02:50:16;100339.84;;;15.93;68.01
65718;BME280;52445;52.466;-1.016;2022-07-26T02:52:44;100344.22;;;15.91;68.48
65718;BME280;52445;52.466;-1.016;2022-07-26T02:55:14;100340.81;;;15.89;68.16
65718;BME280;52445;52.466;-1.016;2022-07-26T02:57:42;100343.47;;;15.86;68.23
65718;BME280;52445;52.466;-1.016;2022-07-26T03:00:15;100340.00;;;15.84;68.21
65718;BME280;52445;52.466;-1.016;2022-07-26T03:02:42;100343.97;;;15.61;68.43
65718;BME280;52445;52.466;-1.016;2022-07-26T03:05:09;100348.03;;;15.75;67.86
65718;BME280;52445;52.466;-1.016;2022-07-26T03:07:36;100347.19;;;15.73;67.82
65718;BME280;52445;52.466;-1.016;2022-07-26T03:10:04;100347.19;;;15.73;68.30
65718;BME280;52445;52.466;-1.016;2022-07-26T03:12:30;100349.00;;;15.71;68.30
65718;BME280;52445;52.466;-1.016;2022-07-26T03:14:57;100351.59;;;15.71;68.50
65718;BME280;52445;52.466;-1.016;2022-07-26T03:17:24;100355.97;;;15.68;68.36
65718;BME280;52445;52.466;-1.016;2022-07-26T03:19:51;100350.75;;;15.68;68.63
65718;BME280;52445;52.466;-1.016;2022-07-26T03:22:17;100350.75;;;15.68;68.41
65718;BME280;52445;52.466;-1.016;2022-07-26T03:24:44;100350.75;;;15.68;69.06
65718;BME280;52445;52.466;-1.016;2022-07-26T03:27:11;100354.22;;;15.71;68.71
65718;BME280;52445;52.466;-1.016;2022-07-26T03:29:37;100361.13;;;15.73;68.68
65718;BME280;52445;52.466;-1.016;2022-07-26T03:32:04;100355.88;;;15.75;68.84
65718;BME280;52445;52.466;-1.016;2022-07-26T03:34:31;100357.59;;;15.76;68.83
65718;BME280;52445;52.466;-1.016;2022-07-26T03:36:58;100364.59;;;15.75;68.71
65718;BME280;52445;52.466;-1.016;2022-07-26T03:39:25;100371.56;;;15.75;68.83
65718;BME280;52445;52.466;-1.016;2022-07-26T03:41:51;100371.56;;;15.75;68.96
65718;BME280;52445;52.466;-1.016;2022-07-26T03:44:18;100378.47;;;15.76;68.71
65718;BME280;52445;52.466;-1.016;2022-07-26T03:46:44;100385.44;;;15.77;68.83
65718;BME280;52445;52.466;-1.016;2022-07-26T03:49:11;100378.44;;;15.79;68.55
65718;BME280;52445;52.466;-1.016;2022-07-26T03:51:42;100380.16;;;15.80;68.95
65718;BME280;52445;52.466;-1.016;2022-07-26T03:54:09;100382.72;;;15.81;68.75
65718;BME280;52445;52.466;-1.016;2022-07-26T03:56:37;100387.94;;;15.83;68.60
65718;BME280;52445;52.466;-1.016;2022-07-26T03:59:05;100380.03;;;15.86;68.87
65718;BME280;52445;52.466;-1.016;2022-07-26T04:01:33;100388.78;;;15.85;68.95
65718;BME280;52445;52.466;-1.016;2022-07-26T04:04:01;100381.75;;;15.87;68.92
65718;BME280;52445;52.466;-1.016;2022-07-26T04:06:28;100393.91;;;15.88;68.53
65718;BME280;52445;52.466;-1.016;2022-07-26T04:08:55;100400.88;;;15.89;68.74
65718;BME280;52445;52.466;-1.016;2022-07-26T04:11:22;100395.66;;;15.89;68.32
65718;BME280;52445;52.466;-1.016;2022-07-26T04:13:53;100392.16;;;15.90;69.12
65718;BME280;52445;52.466;-1.016;2022-07-26T04:16:20;100395.59;;;15.92;68.71
65718;BME280;52445;52.466;-1.016;2022-07-26T04:18:47;100396.41;;;15.94;68.20
65718;BME280;52445;52.466;-1.016;2022-07-26T04:21:14;100395.56;;;15.96;68.54
65718;BME280;52445;52.466;-1.016;2022-07-26T04:23:41;100399.03;;;15.96;68.20
65718;BME280;52445;52.466;-1.016;2022-07-26T04:26:13;100395.56;;;15.96;68.65
65718;BME280;52445;52.466;-1.016;2022-07-26T04:28:40;100401.59;;;15.99;68.72
65718;BME280;52445;52.466;-1.016;2022-07-26T04:31:07;100397.22;;;16.00;68.92
65718;BME280;52445;52.466;-1.016;2022-07-26T04:33:35;100400.66;;;16.02;68.21
65718;BME280;52445;52.466;-1.016;2022-07-26T04:36:01;100406.78;;;16.01;68.10
65718;BME280;52445;52.466;-1.016;2022-07-26T04:38:28;100413.69;;;16.03;68.05
65718;BME280;52445;52.466;-1.016;2022-07-26T04:40:55;100425.00;;;16.04;68.13
65718;BME280;52445;52.466;-1.016;2022-07-26T04:43:23;100426.75;;;16.05;68.11
65718;BME280;52445;52.466;-1.016;2022-07-26T04:45:51;100426.75;;;16.05;68.29
65718;BME280;52445;52.466;-1.016;2022-07-26T04:48:18;100430.16;;;16.07;68.23
65718;BME280;52445;52.466;-1.016;2022-07-26T04:50:45;100428.41;;;16.09;68.45
65718;BME280;52445;52.466;-1.016;2022-07-26T04:53:12;100436.19;;;16.12;68.52
65718;BME280;52445;52.466;-1.016;2022-07-26T04:55:38;100441.38;;;16.14;68.54
65718;BME280;52445;52.466;-1.016;2022-07-26T04:58:06;100424.78;;;16.16;68.30
65718;BME280;52445;52.466;-1.016;2022-07-26T05:00:32;100435.13;;;16.19;68.50
65718;BME280;52445;52.466;-1.016;2022-07-26T05:03:12;100434.28;;;16.21;68.56
65718;BME280;52445;52.466;-1.016;2022-07-26T05:05:38;100437.66;;;16.24;68.75
65718;BME280;52445;52.466;-1.016;2022-07-26T05:08:05;100433.31;;;16.25;68.27
65718;BME280;52445;52.466;-1.016;2022-07-26T05:10:34;100435.03;;;16.26;68.31
65718;BME280;52445;52.466;-1.016;2022-07-26T05:13:03;100443.72;;;16.28;68.53
65718;BME280;52445;52.466;-1.016;2022-07-26T05:15:31;100444.53;;;16.30;68.67
65718;BME280;52445;52.466;-1.016;2022-07-26T05:18:02;100447.13;;;16.30;68.13
65718;BME280;52445;52.466;-1.016;2022-07-26T05:20:32;100444.56;;;16.28;68.01
65718;BME280;52445;52.466;-1.016;2022-07-26T05:22:59;100445.44;;;16.29;68.17
65718;BME280;52445;52.466;-1.016;2022-07-26T05:25:26;100442.81;;;16.29;68.20
65718;BME280;52445;52.466;-1.016;2022-07-26T05:27:53;100443.63;;;16.31;68.02
65718;BME280;52445;52.466;-1.016;2022-07-26T05:30:19;100455.84;;;16.32;67.99
65718;BME280;52445;52.466;-1.016;2022-07-26T05:32:46;100445.28;;;16.35;67.57
65718;BME280;52445;52.466;-1.016;2022-07-26T05:35:13;100451.34;;;16.37;67.55
65718;BME280;52445;52.466;-1.016;2022-07-26T05:37:40;100452.22;;;16.38;67.80
65718;BME280;52445;52.466;-1.016;2022-07-26T05:40:07;100452.19;;;16.39;67.56
65718;BME280;52445;52.466;-1.016;2022-07-26T05:42:33;100452.13;;;16.42;67.43
65718;BME280;52445;52.466;-1.016;2022-07-26T05:45:00;100448.53;;;16.47;67.48
65718;BME280;52445;52.466;-1.016;2022-07-26T05:47:28;100447.56;;;16.52;67.65
65718;BME280;52445;52.466;-1.016;2022-07-26T05:49:55;100458.81;;;16.56;67.31
65718;BME280;52445;52.466;-1.016;2022-07-26T05:52:22;100455.31;;;16.57;67.67
65718;BME280;52445;52.466;-1.016;2022-07-26T05:54:49;100456.97;;;16.61;67.33
65718;BME280;52445;52.466;-1.016;2022-07-26T05:57:15;100469.06;;;16.65;67.27
65718;BME280;52445;52.466;-1.016;2022-07-26T05:59:42;100469.88;;;16.69;66.81
65718;BME280;52445;52.466;-1.016;2022-07-26T06:02:09;100474.13;;;16.75;67.25
65718;BME280;52445;52.466;-1.016;2022-07-26T06:04:35;100467.09;;;16.77;66.54
65718;BME280;52445;52.466;-1.016;2022-07-26T06:07:02;100472.25;;;16.80;66.80
65718;BME280;52445;52.466;-1.016;2022-07-26T06:09:29;100476.59;;;16.81;66.36
65718;BME280;52445;52.466;-1.016;2022-07-26T06:11:55;100481.78;;;16.82;66.08
65718;BME280;52445;52.466;-1.016;2022-07-26T06:14:22;100473.97;;;16.81;66.38
65718;BME280;52445;52.466;-1.016;2022-07-26T06:16:50;100481.75;;;16.84;66.16
65718;BME280;52445;52.466;-1.016;2022-07-26T06:19:16;100480.00;;;16.86;65.89
65718;BME280;52445;52.466;-1.016;2022-07-26T06:21:43;100486.03;;;16.88;66.02
65718;BME280;52445;52.466;-1.016;2022-07-26T06:24:12;100485.97;;;16.91;66.11
65718;BME280;52445;52.466;-1.016;2022-07-26T06:26:39;100482.38;;;16.95;65.99
65718;BME280;52445;52.466;-1.016;2022-07-26T06:29:06;100486.69;;;16.98;65.15
65718;BME280;52445;52.466;-1.016;2022-07-26T06:31:32;100491.81;;;17.03;65.48
65718;BME280;52445;52.466;-1.016;2022-07-26T06:33:59;100497.84;;;17.08;65.89
65718;BME280;52445;52.466;-1.016;2022-07-26T06:36:26;100495.13;;;17.13;65.13
65718;BME280;52445;52.466;-1.016;2022-07-26T06:38:56;100491.59;;;17.14;65.00
65718;BME280;52445;52.466;-1.016;2022-07-26T06:41:23;100497.63;;;17.17;65.26
65718;BME280;52445;52.466;-1.016;2022-07-26T06:43:49;100499.34;;;17.18;65.28
65718;BME280;52445;52.466;-1.016;2022-07-26T06:46:16;100498.50;;;17.16;64.51
65718;BME280;52445;52.466;-1.016;2022-07-26T06:48:45;100499.41;;;17.15;64.79
65718;BME280;52445;52.466;-1.016;2022-07-26T06:51:13;100511.53;;;17.19;64.56
65718;BME280;52445;52.466;-1.016;2022-07-26T06:53:39;100511.41;;;17.26;64.55
65718;BME280;52445;52.466;-1.016;2022-07-26T06:56:07;100514.69;;;17.34;64.88
65718;BME280;52445;52.466;-1.016;2022-07-26T06:58:33;100520.72;;;17.38;63.66
65718;BME280;52445;52.466;-1.016;2022-07-26T07:01:00;100518.06;;;17.39;64.28
65718;BME280;52445;52.466;-1.016;2022-07-26T07:03:27;100528.47;;;17.42;63.87
65718;BME280;52445;52.466;-1.016;2022-07-26T07:05:53;100531.94;;;17.44;64.51
65718;BME280;52445;52.466;-1.016;2022-07-26T07:08:20;100530.19;;;17.43;63.54
65718;BME280;52445;52.466;-1.016;2022-07-26T07:10:48;100531.75;;;17.51;64.25
65718;BME280;52445;52.466;-1.016;2022-07-26T07:13:16;100541.94;;;17.63;63.14
65718;BME280;52445;52.466;-1.016;2022-07-26T07:15:43;100544.25;;;17.77;63.28
65718;BME280;52445;52.466;-1.016;2022-07-26T07:18:10;100545.63;;;17.91;63.10
65718;BME280;52445;52.466;-1.016;2022-07-26T07:20:38;100546.19;;;18.04;62.26
65718;BME280;52445;52.466;-1.016;2022-07-26T07:23:06;100545.03;;;18.16;61.96
65718;BME280;52445;52.466;-1.016;2022-07-26T07:25:33;100545.75;;;18.22;62.36
65718;BME280;52445;52.466;-1.016;2022-07-26T07:28:00;100551.63;;;18.31;61.85
65718;BME280;52445;52.466;-1.016;2022-07-26T07:30:27;100547.13;;;18.36;61.00
65718;BME280;52445;52.466;-1.016;2022-07-26T07:32:54;100560.94;;;18.41;61.06
65718;BME280;52445;52.466;-1.016;2022-07-26T07:35:22;100564.88;;;18.58;61.32
65718;BME280;52445;52.466;-1.016;2022-07-26T07:37:49;100563.63;;;18.71;60.42
65718;BME280;52445;52.466;-1.016;2022-07-26T07:40:18;100556.50;;;18.77;60.02
65718;BME280;52445;52.466;-1.016;2022-07-26T07:42:45;100562.47;;;18.82;59.11
65718;BME280;52445;52.466;-1.016;2022-07-26T07:45:11;100566.81;;;18.83;58.80
65718;BME280;52445;52.466;-1.016;2022-07-26T07:47:38;100563.00;;;18.93;58.84
65718;BME280;52445;52.466;-1.016;2022-07-26T07:50:05;100559.97;;;19.09;58.59
65718;BME280;52445;52.466;-1.016;2022-07-26T07:52:32;100555.16;;;19.23;57.86
65718;BME280;52445;52.466;-1.016;2022-07-26T07:54:59;100558.09;;;19.41;57.97
65718;BME280;52445;52.466;-1.016;2022-07-26T07:57:45;100553.09;;;19.62;56.91
65718;BME280;52445;52.466;-1.016;2022-07-26T08:00:12;100558.72;;;19.76;56.81
65718;BME280;52445;52.466;-1.016;2022-07-26T08:02:41;100552.56;;;20.04;56.33
65718;BME280;52445;52.466;-1.016;2022-07-26T08:05:08;100554.44;;;20.26;55.19
65718;BME280;52445;52.466;-1.016;2022-07-26T08:07:41;100555.66;;;20.41;54.86
65718;BME280;52445;52.466;-1.016;2022-07-26T08:10:08;100560.59;;;20.51;54.53
65718;BME280;52445;52.466;-1.016;2022-07-26T08:12:35;100560.66;;;20.73;54.33
65718;BME280;52445;52.466;-1.016;2022-07-26T08:15:02;100561.72;;;20.93;54.30
65718;BME280;52445;52.466;-1.016;2022-07-26T08:17:34;100561.25;;;21.05;53.54
65718;BME280;52445;52.466;-1.016;2022-07-26T08:20:07;100558.56;;;21.07;53.19
65718;BME280;52445;52.466;-1.016;2022-07-26T08:22:41;100564.81;;;21.04;52.35
65718;BME280;52445;52.466;-1.016;2022-07-26T08:25:08;100571.22;;;20.97;52.19
65718;BME280;52445;52.466;-1.016;2022-07-26T08:27:35;100570.19;;;21.01;52.08
65718;BME280;52445;52.466;-1.016;2022-07-26T08:30:07;100569.97;;;21.08;51.83
65718;BME280;52445;52.466;-1.016;2022-07-26T08:32:34;100562.88;;;21.10;51.70
65718;BME280;52445;52.466;-1.016;2022-07-26T08:35:01;100569.09;;;21.07;50.96
65718;BME280;52445;52.466;-1.016;2022-07-26T08:37:44;100561.13;;;21.09;51.89
65718;BME280;52445;52.466;-1.016;2022-07-26T08:40:11;100564.69;;;21.08;50.88
65718;BME280;52445;52.466;-1.016;2022-07-26T08:42:38;100561.13;;;21.09;51.26
65718;BME280;52445;52.466;-1.016;2022-07-26T08:45:05;100565.25;;;21.16;50.72
65718;BME280;52445;52.466;-1.016;2022-07-26T08:47:32;100563.38;;;21.19;51.11
65718;BME280;52445;52.466;-1.016;2022-07-26T08:50:06;100564.22;;;21.20;50.43
65718;BME280;52445;52.466;-1.016;2022-07-26T08:52:33;100574.75;;;21.20;50.59
65718;BME280;52445;52.466;-1.016;2022-07-26T08:55:00;100570.47;;;21.40;50.89
65718;BME280;52445;52.466;-1.016;2022-07-26T08:57:26;100575.47;;;21.68;49.43
65718;BME280;52445;52.466;-1.016;2022-07-26T09:02:51;100589.88;;;22.04;49.14
65718;BME280;52445;52.466;-1.016;2022-07-26T09:05:19;100582.53;;;22.11;49.24
65718;BME280;52445;52.466;-1.016;2022-07-26T09:07:51;100587.81;;;22.11;48.38
65718;BME280;52445;52.466;-1.016;2022-07-26T09:10:18;100592.63;;;22.01;48.58
65718;BME280;52445;52.466;-1.016;2022-07-26T09:12:44;100586.69;;;21.96;48.23
65718;BME280;52445;52.466;-1.016;2022-07-26T09:15:21;100582.47;;;21.92;47.86
65718;BME280;52445;52.466;-1.016;2022-07-26T09:17:51;100587.53;;;21.96;48.42
65718;BME280;52445;52.466;-1.016;2022-07-26T09:23:12;100588.06;;;22.05;47.85
65718;BME280;52445;52.466;-1.016;2022-07-26T09:25:40;100590.81;;;22.03;48.24
65718;BME280;52445;52.466;-1.016;2022-07-26T09:28:25;100593.56;;;22.21;47.83
65718;BME280;52445;52.466;-1.016;2022-07-26T09:30:56;100595.66;;;22.54;48.37
65718;BME280;52445;52.466;-1.016;2022-07-26T09:33:23;100597.66;;;22.70;46.98
65718;BME280;52445;52.466;-1.016;2022-07-26T09:36:05;100600.78;;;22.78;46.70
65718;BME280;52445;52.466;-1.016;2022-07-26T09:38:50;100607.50;;;22.85;46.14
65718;BME280;52445;52.466;-1.016;2022-07-26T09:41:22;100605.72;;;22.86;45.65
65718;BME280;52445;52.466;-1.016;2022-07-26T09:43:50;100602.88;;;22.91;46.87
65718;BME280;52445;52.466;-1.016;2022-07-26T09:46:21;100609.59;;;22.98;46.33
65718;BME280;52445;52.466;-1.016;2022-07-26T09:48:48;100609.31;;;23.04;45.66
65718;BME280;52445;52.466;-1.016;2022-07-26T09:51:37;100617.06;;;23.07;45.44
65718;BME280;52445;52.466;-1.016;2022-07-26T09:54:05;100612.53;;;23.11;45.93
65718;BME280;52445;52.466;-1.016;2022-07-26T09:56:51;100621.16;;;23.15;45.71
65718;BME280;52445;52.466;-1.016;2022-07-26T09:59:20;100615.03;;;23.14;45.23
65718;BME280;52445;52.466;-1.016;2022-07-26T10:01:49;100622.56;;;23.22;45.15
65718;BME280;52445;52.466;-1.016;2022-07-26T10:04:17;100616.59;;;23.18;44.54
65718;BME280;52445;52.466;-1.016;2022-07-26T10:06:45;100614.50;;;23.25;45.50
65718;BME280;52445;52.466;-1.016;2022-07-26T10:09:12;100620.28;;;23.33;45.45
65718;BME280;52445;52.466;-1.016;2022-07-26T10:11:42;100623.59;;;23.39;44.17
65718;BME280;52445;52.466;-1.016;2022-07-26T10:20:07;100634.03;;;23.42;44.50
65718;BME280;52445;52.466;-1.016;2022-07-26T10:22:45;100623.22;;;23.46;44.49
65718;BME280;52445;52.466;-1.016;2022-07-26T10:27:53;100621.47;;;23.47;44.51
65718;BME280;52445;52.466;-1.016;2022-07-26T10:40:56;100633.72;;;23.29;43.86
65718;BME280;52445;52.466;-1.016;2022-07-26T10:43:23;100631.56;;;23.18;44.62
65718;BME280;52445;52.466;-1.016;2022-07-26T10:51:34;100634.13;;;23.00;44.31
65718;BME280;52445;52.466;-1.016;2022-07-26T10:54:05;100630.84;;;22.95;43.52
65718;BME280;52445;52.466;-1.016;2022-07-26T10:56:32;100634.69;;;22.88;44.44
65718;BME280;52445;52.466;-1.016;2022-07-26T10:59:00;100629.84;;;22.78;44.60
65718;BME280;52445;52.466;-1.016;2022-07-26T11:01:32;100629.09;;;22.75;44.32
65718;BME280;52445;52.466;-1.016;2022-07-26T11:03:59;100623.31;;;22.66;44.73
65718;BME280;52445;52.466;-1.016;2022-07-26T11:06:27;100634.09;;;22.62;44.83
65718;BME280;52445;52.466;-1.016;2022-07-26T11:08:55;100635.66;;;22.66;44.95
65718;BME280;52445;52.466;-1.016;2022-07-26T11:11:31;100637.25;;;22.70;45.26
65718;BME280;52445;52.466;-1.016;2022-07-26T11:14:15;100642.91;;;22.60;44.33
65718;BME280;52445;52.466;-1.016;2022-07-26T11:16:45;100638.16;;;22.48;44.77
65718;BME280;52445;52.466;-1.016;2022-07-26T11:19:16;100640.13;;;22.43;45.17
65718;BME280;52445;52.466;-1.016;2022-07-26T11:21:44;100644.09;;;22.32;44.95
65718;BME280;52445;52.466;-1.016;2022-07-26T11:24:12;100648.66;;;22.29;45.16
65718;BME280;52445;52.466;-1.016;2022-07-26T11:26:41;100646.31;;;22.21;45.56
65718;BME280;52445;52.466;-1.016;2022-07-26T11:29:09;100642.34;;;22.11;45.87
65718;BME280;52445;52.466;-1.016;2022-07-26T11:31:44;100651.47;;;22.03;46.03
65718;BME280;52445;52.466;-1.016;2022-07-26T11:34:25;100642.97;;;21.73;45.69
65718;BME280;52445;52.466;-1.016;2022-07-26T11:36:54;100644.28;;;21.85;45.59
65718;BME280;52445;52.466;-1.016;2022-07-26T11:39:31;100639.03;;;21.85;46.03
65718;BME280;52445;52.466;-1.016;2022-07-26T11:44:35;100648.13;;;21.98;46.02
65718;BME280;52445;52.466;-1.016;2022-07-26T11:47:11;100647.34;;;21.96;46.13
65718;BME280;52445;52.466;-1.016;2022-07-26T11:49:39;100646.19;;;22.03;46.21
65718;BME280;52445;52.466;-1.016;2022-07-26T11:52:30;100631.66;;;22.14;46.28
65718;BME280;52445;52.466;-1.016;2022-07-26T11:54:58;100635.00;;;22.19;45.50
65718;BME280;52445;52.466;-1.016;2022-07-26T11:57:29;100633.78;;;22.26;46.66
65718;BME280;52445;52.466;-1.016;2022-07-26T11:59:58;100629.13;;;22.33;46.16
65718;BME280;52445;52.466;-1.016;2022-07-26T12:02:27;100641.44;;;22.32;46.17
65718;BME280;52445;52.466;-1.016;2022-07-26T12:05:15;100636.94;;;22.14;45.62
65718;BME280;52445;52.466;-1.016;2022-07-26T12:08:00;100644.44;;;22.02;45.49
65718;BME280;52445;52.466;-1.016;2022-07-26T12:10:30;100647.09;;;22.02;46.37
65718;BME280;52445;52.466;-1.016;2022-07-26T12:13:14;100643.66;;;22.00;46.36
65718;BME280;52445;52.466;-1.016;2022-07-26T12:21:06;100647.97;;;22.24;46.16
65718;BME280;52445;52.466;-1.016;2022-07-26T12:23:43;100650.47;;;22.27;46.30
65718;BME280;52445;52.466;-1.016;2022-07-26T12:26:27;100648.31;;;22.16;46.26
65718;BME280;52445;52.466;-1.016;2022-07-26T12:28:56;100648.56;;;22.09;46.66
65718;BME280;52445;52.466;-1.016;2022-07-26T12:31:29;100648.81;;;22.03;46.41
65718;BME280;52445;52.466;-1.016;2022-07-26T12:33:57;100648.81;;;22.03;47.01
65718;BME280;52445;52.466;-1.016;2022-07-26T12:36:24;100645.25;;;22.04;47.23
65718;BME280;52445;52.466;-1.016;2022-07-26T12:38:57;100643.41;;;22.06;46.93
65718;BME280;52445;52.466;-1.016;2022-07-26T12:44:08;100639.13;;;22.04;47.46
65718;BME280;52445;52.466;-1.016;2022-07-26T12:46:38;100641.44;;;22.12;48.00
65718;BME280;52445;52.466;-1.016;2022-07-26T12:49:05;100646.31;;;22.21;47.21
65718;BME280;52445;52.466;-1.016;2022-07-26T12:51:32;100647.91;;;22.25;47.57
65718;BME280;52445;52.466;-1.016;2022-07-26T12:53:59;100654.00;;;22.27;47.21
65718;BME280;52445;52.466;-1.016;2022-07-26T12:56:25;100648.03;;;22.22;47.41
65718;BME280;52445;52.466;-1.016;2022-07-26T12:58:52;100639.88;;;22.28;47.57
65718;BME280;52445;52.466;-1.016;2022-07-26T13:01:19;100648.19;;;22.40;48.28
65718;BME280;52445;52.466;-1.016;2022-07-26T13:03:46;100642.44;;;22.51;47.96
65718;BME280;52445;52.466;-1.016;2022-07-26T13:06:13;100641.44;;;22.53;47.23
65718;BME280;52445;52.466;-1.016;2022-07-26T13:08:39;100642.16;;;22.58;47.18
65718;BME280;52445;52.466;-1.016;2022-07-26T13:11:06;100646.22;;;22.66;47.07
65718;BME280;52445;52.466;-1.016;2022-07-26T13:13:33;100646.94;;;22.69;46.97
65718;BME280;52445;52.466;-1.016;2022-07-26T13:15:59;100651.50;;;22.66;47.10
65718;BME280;52445;52.466;-1.016;2022-07-26T13:18:26;100642.84;;;22.62;47.34
65718;BME280;52445;52.466;-1.016;2022-07-26T13:20:52;100646.44;;;22.61;47.08
65718;BME280;52445;52.466;-1.016;2022-07-26T13:23:19;100642.97;;;22.59;46.71
65718;BME280;52445;52.466;-1.016;2022-07-26T13:25:51;100646.50;;;22.59;47.04
65718;BME280;52445;52.466;-1.016;2022-07-26T13:28:18;100647.41;;;22.58;46.87